KHSP/HSP METAR and TAF weather

Enter ICAO airport designator
Station Type Date Time Source
KHSP METAR 2019/02/20 23:35 UTC NOAA

KHSP 202335Z AUTO 00000KT 1/4SM FG OVC002 01/01 A3004 RMK AO2 LTG DSNT SW P0005 T00110011


Station Type Date Time Source
KHSP Decoded METAR 2019/02/20 23:35 UTC NOAA

Hot Springs / Ingalls, VA, United States (KHSP) 37-57N 079-50W
Feb 20, 2019 - 06:35 PM EST / 2019.02.20 2335 UTC
Wind: Calm:0
Visibility: 1/4 mile(s):0
Sky conditions: overcast
Weather: fog; Lightning observed
Precipitation last hour: 0.05 inches
Temperature: 34.0 F (1.1 C)
Dew Point: 34.0 F (1.1 C)
Relative Humidity: 100%
Pressure (altimeter): 30.04 in. Hg (1017 hPa)
ob: KHSP 202335Z AUTO 00000KT 1/4SM FG OVC002 01/01 A3004 RMK AO2 LTG DSNT SW P0005 T00110011
cycle: 23

Station Type Date Time Source
KHSP TAF UTC NOAA

Error!


Example: see airport list